Terminal Aerodrome Forecast
Issued by NWS

Home | Current Version | Previous Version | Text Only | Print | Product List | Glossary On
Versions: 1 2 3 4 5 6 7 8 9 10 11 12
000
FTUS43 KOAX 021740
TAFCDR
TAF
KCDR 021740Z 0218/0318 05008KT P6SM SCT080
     FM022200 07013KT P6SM VCTS SCT150CB
     FM030100 VRB04KT P6SM SCT200
     FM031600 12008KT P6SM BKN200=

USA.gov is the U.S. government's official web portal to all federal, state and local government web resources and services.